Damianopolis, Brazil
Current Conditions -  °F | °C
As of 12:00 AM on Thursday 23 Oct 2014 (Local Time) from SBBR Reporting Station
Few Clouds Few Clouds  
Wind Chill: 72°   Ceiling: Unl
Heat Index: 72°   Visibility: 6mi
Dew Point: 59°   Wind: 3mph
Humidity: 64%   Direction: 350°N
Pressure: 30.12"   Gusts: NA
Location:  14.56°S, 46.18°W
Report Text: SBBR 230200Z 35003KT 9999 FEW040 22/15 Q1020
Loading
Personal Weather Stations






























Interactive Weather Map
Tropical Storm Tracking
New forecast layout! Learn more

10-Day Weather Forecast

Advertisements
Track Severe Weather on mobile